sensor_id;sensor_type;location;lat;lon;timestamp;P1;durP1;ratioP1;P2;durP2;ratioP2
3054;SDS011;1537;52.018;8.542;2023-01-28T00:00:50;9.13;;;4.63;;
3054;SDS011;1537;52.018;8.542;2023-01-28T00:04:14;7.20;;;4.60;;
3054;SDS011;1537;52.018;8.542;2023-01-28T00:07:39;6.60;;;4.93;;
3054;SDS011;1537;52.018;8.542;2023-01-28T00:11:05;6.37;;;4.73;;
3054;SDS011;1537;52.018;8.542;2023-01-28T00:14:30;5.60;;;5.00;;
3054;SDS011;1537;52.018;8.542;2023-01-28T00:17:53;7.83;;;4.97;;
3054;SDS011;1537;52.018;8.542;2023-01-28T00:21:17;6.07;;;4.60;;
3054;SDS011;1537;52.018;8.542;2023-01-28T00:24:41;6.90;;;5.37;;
3054;SDS011;1537;52.018;8.542;2023-01-28T00:28:06;5.20;;;4.70;;
3054;SDS011;1537;52.018;8.542;2023-01-28T00:31:30;5.97;;;5.37;;
3054;SDS011;1537;52.018;8.542;2023-01-28T00:34:55;5.80;;;4.93;;
3054;SDS011;1537;52.018;8.542;2023-01-28T00:38:18;7.27;;;4.90;;
3054;SDS011;1537;52.018;8.542;2023-01-28T00:41:42;5.27;;;4.30;;
3054;SDS011;1537;52.018;8.542;2023-01-28T00:45:08;7.57;;;4.47;;
3054;SDS011;1537;52.018;8.542;2023-01-28T00:48:32;5.50;;;4.80;;
3054;SDS011;1537;52.018;8.542;2023-01-28T00:51:56;4.73;;;3.60;;
3054;SDS011;1537;52.018;8.542;2023-01-28T00:55:20;5.50;;;4.50;;
3054;SDS011;1537;52.018;8.542;2023-01-28T00:58:44;5.97;;;4.53;;
3054;SDS011;1537;52.018;8.542;2023-01-28T01:02:09;6.30;;;4.57;;
3054;SDS011;1537;52.018;8.542;2023-01-28T01:05:39;6.00;;;4.60;;
3054;SDS011;1537;52.018;8.542;2023-01-28T01:09:03;6.07;;;5.10;;
3054;SDS011;1537;52.018;8.542;2023-01-28T01:12:29;6.97;;;4.20;;
3054;SDS011;1537;52.018;8.542;2023-01-28T01:16:02;4.93;;;4.40;;
3054;SDS011;1537;52.018;8.542;2023-01-28T01:19:28;5.97;;;4.57;;
3054;SDS011;1537;52.018;8.542;2023-01-28T01:22:53;7.73;;;5.00;;
3054;SDS011;1537;52.018;8.542;2023-01-28T01:26:18;6.43;;;5.17;;
3054;SDS011;1537;52.018;8.542;2023-01-28T01:29:42;5.03;;;4.53;;
3054;SDS011;1537;52.018;8.542;2023-01-28T01:33:05;6.63;;;4.20;;
3054;SDS011;1537;52.018;8.542;2023-01-28T01:36:30;5.60;;;4.60;;
3054;SDS011;1537;52.018;8.542;2023-01-28T01:39:54;5.97;;;3.97;;
3054;SDS011;1537;52.018;8.542;2023-01-28T01:43:18;6.67;;;4.43;;
3054;SDS011;1537;52.018;8.542;2023-01-28T01:46:44;6.87;;;4.40;;
3054;SDS011;1537;52.018;8.542;2023-01-28T01:50:14;5.03;;;4.23;;
3054;SDS011;1537;52.018;8.542;2023-01-28T01:53:45;6.53;;;4.70;;
3054;SDS011;1537;52.018;8.542;2023-01-28T01:57:12;5.50;;;4.60;;
3054;SDS011;1537;52.018;8.542;2023-01-28T02:00:38;6.70;;;4.33;;
3054;SDS011;1537;52.018;8.542;2023-01-28T02:04:03;7.50;;;5.17;;
3054;SDS011;1537;52.018;8.542;2023-01-28T02:07:31;7.70;;;4.23;;
3054;SDS011;1537;52.018;8.542;2023-01-28T02:10:57;6.03;;;5.13;;
3054;SDS011;1537;52.018;8.542;2023-01-28T02:14:25;5.23;;;4.30;;
3054;SDS011;1537;52.018;8.542;2023-01-28T02:17:52;5.07;;;4.57;;
3054;SDS011;1537;52.018;8.542;2023-01-28T02:21:22;8.60;;;5.17;;
3054;SDS011;1537;52.018;8.542;2023-01-28T02:25:09;5.80;;;4.00;;
3054;SDS011;1537;52.018;8.542;2023-01-28T02:28:58;7.30;;;4.53;;
3054;SDS011;1537;52.018;8.542;2023-01-28T02:32:29;5.40;;;4.90;;
3054;SDS011;1537;52.018;8.542;2023-01-28T02:36:02;5.60;;;4.07;;
3054;SDS011;1537;52.018;8.542;2023-01-28T02:39:37;9.80;;;4.97;;
3054;SDS011;1537;52.018;8.542;2023-01-28T02:43:05;12.20;;;4.57;;
3054;SDS011;1537;52.018;8.542;2023-01-28T02:46:34;14.70;;;4.37;;
3054;SDS011;1537;52.018;8.542;2023-01-28T02:50:17;5.63;;;4.50;;
3054;SDS011;1537;52.018;8.542;2023-01-28T02:53:44;7.40;;;3.50;;
3054;SDS011;1537;52.018;8.542;2023-01-28T02:57:20;5.60;;;4.37;;
3054;SDS011;1537;52.018;8.542;2023-01-28T03:01:00;5.90;;;4.90;;
3054;SDS011;1537;52.018;8.542;2023-01-28T03:04:32;11.47;;;5.33;;
3054;SDS011;1537;52.018;8.542;2023-01-28T03:08:00;7.97;;;4.57;;
3054;SDS011;1537;52.018;8.542;2023-01-28T03:11:46;9.43;;;5.40;;
3054;SDS011;1537;52.018;8.542;2023-01-28T03:15:31;7.03;;;5.27;;
3054;SDS011;1537;52.018;8.542;2023-01-28T03:19:15;6.93;;;4.83;;
3054;SDS011;1537;52.018;8.542;2023-01-28T03:23:00;6.07;;;4.33;;
3054;SDS011;1537;52.018;8.542;2023-01-28T03:26:47;9.80;;;5.30;;
3054;SDS011;1537;52.018;8.542;2023-01-28T03:30:37;6.80;;;6.10;;
3054;SDS011;1537;52.018;8.542;2023-01-28T03:34:34;6.23;;;5.10;;
3054;SDS011;1537;52.018;8.542;2023-01-28T03:38:17;7.23;;;5.37;;
3054;SDS011;1537;52.018;8.542;2023-01-28T03:41:54;6.93;;;5.70;;
3054;SDS011;1537;52.018;8.542;2023-01-28T03:45:19;11.43;;;5.77;;
3054;SDS011;1537;52.018;8.542;2023-01-28T03:48:43;5.50;;;4.60;;
3054;SDS011;1537;52.018;8.542;2023-01-28T03:52:09;7.00;;;4.93;;
3054;SDS011;1537;52.018;8.542;2023-01-28T03:55:34;6.50;;;5.10;;
3054;SDS011;1537;52.018;8.542;2023-01-28T03:58:58;8.07;;;5.00;;
3054;SDS011;1537;52.018;8.542;2023-01-28T04:02:22;7.87;;;6.13;;
3054;SDS011;1537;52.018;8.542;2023-01-28T04:05:56;5.10;;;3.70;;
3054;SDS011;1537;52.018;8.542;2023-01-28T04:09:31;5.37;;;4.87;;
3054;SDS011;1537;52.018;8.542;2023-01-28T04:13:21;6.77;;;5.87;;
3054;SDS011;1537;52.018;8.542;2023-01-28T04:16:44;6.53;;;4.50;;
3054;SDS011;1537;52.018;8.542;2023-01-28T04:20:09;6.27;;;5.67;;
3054;SDS011;1537;52.018;8.542;2023-01-28T04:23:34;6.10;;;4.87;;
3054;SDS011;1537;52.018;8.542;2023-01-28T04:26:58;5.77;;;5.17;;
3054;SDS011;1537;52.018;8.542;2023-01-28T04:30:23;6.10;;;4.97;;
3054;SDS011;1537;52.018;8.542;2023-01-28T04:33:59;5.30;;;4.80;;
3054;SDS011;1537;52.018;8.542;2023-01-28T04:37:37;8.40;;;5.33;;
3054;SDS011;1537;52.018;8.542;2023-01-28T04:41:15;6.10;;;5.50;;
3054;SDS011;1537;52.018;8.542;2023-01-28T04:44:39;6.00;;;5.40;;
3054;SDS011;1537;52.018;8.542;2023-01-28T04:48:42;6.43;;;5.30;;
3054;SDS011;1537;52.018;8.542;2023-01-28T04:52:27;7.83;;;6.40;;
3054;SDS011;1537;52.018;8.542;2023-01-28T04:56:10;8.03;;;5.37;;
3054;SDS011;1537;52.018;8.542;2023-01-28T04:59:33;7.07;;;5.83;;
3054;SDS011;1537;52.018;8.542;2023-01-28T05:02:57;8.33;;;5.80;;
3054;SDS011;1537;52.018;8.542;2023-01-28T05:06:22;5.90;;;5.30;;
3054;SDS011;1537;52.018;8.542;2023-01-28T05:09:55;10.43;;;6.50;;
3054;SDS011;1537;52.018;8.542;2023-01-28T05:13:19;6.57;;;5.90;;
3054;SDS011;1537;52.018;8.542;2023-01-28T05:16:43;7.40;;;6.63;;
3054;SDS011;1537;52.018;8.542;2023-01-28T05:20:07;6.57;;;5.87;;
3054;SDS011;1537;52.018;8.542;2023-01-28T05:23:33;10.10;;;6.60;;
3054;SDS011;1537;52.018;8.542;2023-01-28T05:26:57;6.53;;;5.73;;
3054;SDS011;1537;52.018;8.542;2023-01-28T05:30:21;9.90;;;7.70;;
3054;SDS011;1537;52.018;8.542;2023-01-28T05:33:45;6.13;;;5.53;;
3054;SDS011;1537;52.018;8.542;2023-01-28T05:37:09;11.03;;;6.33;;
3054;SDS011;1537;52.018;8.542;2023-01-28T05:40:34;5.30;;;4.03;;
3054;SDS011;1537;52.018;8.542;2023-01-28T05:43:58;6.27;;;5.00;;
3054;SDS011;1537;52.018;8.542;2023-01-28T05:47:48;6.60;;;5.30;;
3054;SDS011;1537;52.018;8.542;2023-01-28T05:51:29;7.27;;;6.07;;
3054;SDS011;1537;52.018;8.542;2023-01-28T05:54:53;5.90;;;4.50;;
3054;SDS011;1537;52.018;8.542;2023-01-28T05:58:19;7.50;;;6.13;;
3054;SDS011;1537;52.018;8.542;2023-01-28T06:01:43;6.53;;;5.83;;
3054;SDS011;1537;52.018;8.542;2023-01-28T06:05:07;8.97;;;6.23;;
3054;SDS011;1537;52.018;8.542;2023-01-28T06:08:31;6.50;;;5.63;;
3054;SDS011;1537;52.018;8.542;2023-01-28T06:11:55;6.80;;;5.80;;
3054;SDS011;1537;52.018;8.542;2023-01-28T06:15:21;8.43;;;5.63;;
3054;SDS011;1537;52.018;8.542;2023-01-28T06:19:03;7.07;;;5.27;;
3054;SDS011;1537;52.018;8.542;2023-01-28T06:22:28;6.67;;;5.73;;
3054;SDS011;1537;52.018;8.542;2023-01-28T06:25:52;9.07;;;6.23;;
3054;SDS011;1537;52.018;8.542;2023-01-28T06:29:16;9.10;;;7.00;;
3054;SDS011;1537;52.018;8.542;2023-01-28T06:32:41;7.47;;;5.17;;
3054;SDS011;1537;52.018;8.542;2023-01-28T06:36:06;6.93;;;5.23;;
3054;SDS011;1537;52.018;8.542;2023-01-28T06:39:30;11.20;;;6.67;;
3054;SDS011;1537;52.018;8.542;2023-01-28T06:42:54;6.80;;;5.83;;
3054;SDS011;1537;52.018;8.542;2023-01-28T06:46:18;7.30;;;5.40;;
3054;SDS011;1537;52.018;8.542;2023-01-28T06:49:43;8.23;;;6.10;;
3054;SDS011;1537;52.018;8.542;2023-01-28T06:53:07;8.63;;;6.30;;
3054;SDS011;1537;52.018;8.542;2023-01-28T06:56:31;8.50;;;5.80;;
3054;SDS011;1537;52.018;8.542;2023-01-28T06:59:54;7.10;;;6.30;;
3054;SDS011;1537;52.018;8.542;2023-01-28T07:03:18;6.93;;;5.83;;
3054;SDS011;1537;52.018;8.542;2023-01-28T07:06:43;7.90;;;6.50;;
3054;SDS011;1537;52.018;8.542;2023-01-28T07:10:07;10.00;;;6.87;;
3054;SDS011;1537;52.018;8.542;2023-01-28T07:13:32;8.27;;;6.40;;
3054;SDS011;1537;52.018;8.542;2023-01-28T07:16:55;9.80;;;5.27;;
3054;SDS011;1537;52.018;8.542;2023-01-28T07:20:19;8.17;;;6.17;;
3054;SDS011;1537;52.018;8.542;2023-01-28T07:23:44;11.27;;;5.63;;
3054;SDS011;1537;52.018;8.542;2023-01-28T07:27:08;8.30;;;6.30;;
3054;SDS011;1537;52.018;8.542;2023-01-28T07:30:32;11.70;;;6.17;;
3054;SDS011;1537;52.018;8.542;2023-01-28T07:33:55;11.60;;;5.83;;
3054;SDS011;1537;52.018;8.542;2023-01-28T07:37:19;8.03;;;5.87;;
3054;SDS011;1537;52.018;8.542;2023-01-28T07:40:44;6.87;;;5.57;;
3054;SDS011;1537;52.018;8.542;2023-01-28T07:44:08;11.27;;;6.13;;
3054;SDS011;1537;52.018;8.542;2023-01-28T07:47:32;7.60;;;6.40;;
3054;SDS011;1537;52.018;8.542;2023-01-28T07:50:57;11.97;;;6.87;;
3054;SDS011;1537;52.018;8.542;2023-01-28T07:54:21;9.93;;;6.50;;
3054;SDS011;1537;52.018;8.542;2023-01-28T07:57:50;7.67;;;6.87;;
3054;SDS011;1537;52.018;8.542;2023-01-28T08:01:15;9.37;;;6.53;;
3054;SDS011;1537;52.018;8.542;2023-01-28T08:04:40;7.23;;;6.30;;
3054;SDS011;1537;52.018;8.542;2023-01-28T08:08:04;6.90;;;4.93;;
3054;SDS011;1537;52.018;8.542;2023-01-28T08:11:29;7.83;;;6.30;;
3054;SDS011;1537;52.018;8.542;2023-01-28T08:14:54;9.33;;;7.17;;
3054;SDS011;1537;52.018;8.542;2023-01-28T08:18:18;10.50;;;5.73;;
3054;SDS011;1537;52.018;8.542;2023-01-28T08:21:41;10.07;;;6.33;;
3054;SDS011;1537;52.018;8.542;2023-01-28T08:25:05;6.93;;;6.23;;
3054;SDS011;1537;52.018;8.542;2023-01-28T08:28:30;9.83;;;6.77;;
3054;SDS011;1537;52.018;8.542;2023-01-28T08:31:55;7.40;;;6.23;;
3054;SDS011;1537;52.018;8.542;2023-01-28T08:35:19;6.90;;;6.20;;
3054;SDS011;1537;52.018;8.542;2023-01-28T08:38:43;7.43;;;5.70;;
3054;SDS011;1537;52.018;8.542;2023-01-28T08:42:06;9.50;;;6.97;;
3054;SDS011;1537;52.018;8.542;2023-01-28T08:45:30;7.53;;;6.57;;
3054;SDS011;1537;52.018;8.542;2023-01-28T08:48:56;6.40;;;5.70;;
3054;SDS011;1537;52.018;8.542;2023-01-28T08:52:20;7.83;;;6.07;;
3054;SDS011;1537;52.018;8.542;2023-01-28T08:55:43;8.97;;;6.27;;
3054;SDS011;1537;52.018;8.542;2023-01-28T08:59:08;8.43;;;6.30;;
3054;SDS011;1537;52.018;8.542;2023-01-28T09:02:32;7.33;;;6.03;;
3054;SDS011;1537;52.018;8.542;2023-01-28T09:06:00;7.17;;;5.37;;
3054;SDS011;1537;52.018;8.542;2023-01-28T09:09:24;8.73;;;6.00;;
3054;SDS011;1537;52.018;8.542;2023-01-28T09:12:47;9.03;;;6.53;;
3054;SDS011;1537;52.018;8.542;2023-01-28T09:16:11;8.40;;;6.80;;
3054;SDS011;1537;52.018;8.542;2023-01-28T09:19:35;7.40;;;6.33;;
3054;SDS011;1537;52.018;8.542;2023-01-28T09:23:00;7.73;;;4.87;;
3054;SDS011;1537;52.018;8.542;2023-01-28T09:26:24;8.33;;;6.97;;
3054;SDS011;1537;52.018;8.542;2023-01-28T09:29:47;7.07;;;6.20;;
3054;SDS011;1537;52.018;8.542;2023-01-28T09:33:11;7.63;;;6.40;;
3054;SDS011;1537;52.018;8.542;2023-01-28T09:36:35;10.40;;;7.10;;
3054;SDS011;1537;52.018;8.542;2023-01-28T09:40:00;6.67;;;4.70;;
3054;SDS011;1537;52.018;8.542;2023-01-28T09:43:43;8.70;;;7.50;;
3054;SDS011;1537;52.018;8.542;2023-01-28T09:47:18;8.07;;;7.13;;
3054;SDS011;1537;52.018;8.542;2023-01-28T09:50:47;10.37;;;7.03;;
3054;SDS011;1537;52.018;8.542;2023-01-28T09:54:14;11.43;;;7.10;;
3054;SDS011;1537;52.018;8.542;2023-01-28T09:57:48;9.47;;;7.93;;
3054;SDS011;1537;52.018;8.542;2023-01-28T10:01:21;9.90;;;7.63;;
3054;SDS011;1537;52.018;8.542;2023-01-28T10:04:58;13.37;;;7.23;;
3054;SDS011;1537;52.018;8.542;2023-01-28T10:08:41;10.73;;;7.43;;
3054;SDS011;1537;52.018;8.542;2023-01-28T10:12:38;11.73;;;6.70;;
3054;SDS011;1537;52.018;8.542;2023-01-28T10:16:25;7.50;;;6.10;;
3054;SDS011;1537;52.018;8.542;2023-01-28T10:19:54;8.50;;;7.60;;
3054;SDS011;1537;52.018;8.542;2023-01-28T10:23:23;8.60;;;7.03;;
3054;SDS011;1537;52.018;8.542;2023-01-28T10:26:51;8.80;;;6.27;;
3054;SDS011;1537;52.018;8.542;2023-01-28T10:30:16;9.03;;;8.03;;
3054;SDS011;1537;52.018;8.542;2023-01-28T10:33:43;8.70;;;6.23;;
3054;SDS011;1537;52.018;8.542;2023-01-28T10:37:07;12.63;;;7.23;;
3054;SDS011;1537;52.018;8.542;2023-01-28T10:40:35;11.77;;;9.13;;
3054;SDS011;1537;52.018;8.542;2023-01-28T10:43:58;17.73;;;13.27;;
3054;SDS011;1537;52.018;8.542;2023-01-28T10:47:24;11.70;;;8.57;;
3054;SDS011;1537;52.018;8.542;2023-01-28T10:50:54;8.20;;;7.00;;
3054;SDS011;1537;52.018;8.542;2023-01-28T10:54:22;8.70;;;6.97;;
3054;SDS011;1537;52.018;8.542;2023-01-28T10:57:47;10.10;;;5.57;;
3054;SDS011;1537;52.018;8.542;2023-01-28T11:01:11;8.63;;;5.77;;
3054;SDS011;1537;52.018;8.542;2023-01-28T11:04:36;11.47;;;8.60;;
3054;SDS011;1537;52.018;8.542;2023-01-28T11:08:14;8.83;;;6.43;;
3054;SDS011;1537;52.018;8.542;2023-01-28T11:11:39;11.13;;;8.50;;
3054;SDS011;1537;52.018;8.542;2023-01-28T11:15:04;10.60;;;8.00;;
3054;SDS011;1537;52.018;8.542;2023-01-28T11:18:29;6.90;;;5.30;;
3054;SDS011;1537;52.018;8.542;2023-01-28T11:21:55;9.03;;;6.73;;
3054;SDS011;1537;52.018;8.542;2023-01-28T11:25:25;7.40;;;6.43;;
3054;SDS011;1537;52.018;8.542;2023-01-28T11:28:51;7.70;;;6.90;;
3054;SDS011;1537;52.018;8.542;2023-01-28T11:32:16;8.27;;;6.50;;
3054;SDS011;1537;52.018;8.542;2023-01-28T11:35:41;8.17;;;6.50;;
3054;SDS011;1537;52.018;8.542;2023-01-28T11:39:15;10.43;;;6.27;;
3054;SDS011;1537;52.018;8.542;2023-01-28T11:42:43;8.17;;;6.50;;
3054;SDS011;1537;52.018;8.542;2023-01-28T11:46:10;7.33;;;5.90;;
3054;SDS011;1537;52.018;8.542;2023-01-28T11:49:51;9.57;;;6.80;;
3054;SDS011;1537;52.018;8.542;2023-01-28T11:53:34;10.40;;;6.30;;
3054;SDS011;1537;52.018;8.542;2023-01-28T11:57:15;8.70;;;6.93;;
3054;SDS011;1537;52.018;8.542;2023-01-28T12:00:46;7.20;;;6.50;;
3054;SDS011;1537;52.018;8.542;2023-01-28T12:04:25;9.57;;;7.90;;
3054;SDS011;1537;52.018;8.542;2023-01-28T12:08:01;10.03;;;7.90;;
3054;SDS011;1537;52.018;8.542;2023-01-28T12:11:32;9.10;;;6.93;;
3054;SDS011;1537;52.018;8.542;2023-01-28T12:15:39;11.77;;;7.40;;
3054;SDS011;1537;52.018;8.542;2023-01-28T12:19:39;9.30;;;6.97;;
3054;SDS011;1537;52.018;8.542;2023-01-28T12:23:22;8.97;;;6.93;;
3054;SDS011;1537;52.018;8.542;2023-01-28T12:27:09;10.00;;;7.83;;
3054;SDS011;1537;52.018;8.542;2023-01-28T12:30:46;9.80;;;7.50;;
3054;SDS011;1537;52.018;8.542;2023-01-28T12:34:34;11.37;;;8.67;;
3054;SDS011;1537;52.018;8.542;2023-01-28T12:38:13;8.37;;;7.57;;
3054;SDS011;1537;52.018;8.542;2023-01-28T12:41:40;9.70;;;7.60;;
3054;SDS011;1537;52.018;8.542;2023-01-28T12:45:11;9.30;;;8.17;;
3054;SDS011;1537;52.018;8.542;2023-01-28T12:48:39;10.90;;;7.93;;
3054;SDS011;1537;52.018;8.542;2023-01-28T12:52:23;8.90;;;8.00;;
3054;SDS011;1537;52.018;8.542;2023-01-28T12:55:53;9.67;;;8.67;;
3054;SDS011;1537;52.018;8.542;2023-01-28T12:59:21;10.20;;;8.90;;
3054;SDS011;1537;52.018;8.542;2023-01-28T13:02:51;11.23;;;9.50;;
3054;SDS011;1537;52.018;8.542;2023-01-28T13:06:20;8.93;;;8.03;;
3054;SDS011;1537;52.018;8.542;2023-01-28T13:09:50;10.43;;;8.30;;
3054;SDS011;1537;52.018;8.542;2023-01-28T13:13:17;10.57;;;7.27;;
3054;SDS011;1537;52.018;8.542;2023-01-28T13:16:45;10.60;;;9.60;;
3054;SDS011;1537;52.018;8.542;2023-01-28T13:20:16;9.70;;;7.33;;
3054;SDS011;1537;52.018;8.542;2023-01-28T13:24:02;12.87;;;8.87;;
3054;SDS011;1537;52.018;8.542;2023-01-28T13:27:30;9.73;;;8.13;;
3054;SDS011;1537;52.018;8.542;2023-01-28T13:30:59;8.80;;;7.87;;
3054;SDS011;1537;52.018;8.542;2023-01-28T13:34:28;8.50;;;7.60;;
3054;SDS011;1537;52.018;8.542;2023-01-28T13:37:54;8.47;;;7.27;;
3054;SDS011;1537;52.018;8.542;2023-01-28T13:41:19;10.90;;;8.03;;
3054;SDS011;1537;52.018;8.542;2023-01-28T13:44:43;10.53;;;8.37;;
3054;SDS011;1537;52.018;8.542;2023-01-28T13:48:15;9.03;;;7.43;;
3054;SDS011;1537;52.018;8.542;2023-01-28T13:51:49;9.03;;;7.90;;
3054;SDS011;1537;52.018;8.542;2023-01-28T13:55:22;15.73;;;8.70;;
3054;SDS011;1537;52.018;8.542;2023-01-28T13:59:18;8.67;;;7.73;;
3054;SDS011;1537;52.018;8.542;2023-01-28T14:03:02;9.47;;;7.87;;
3054;SDS011;1537;52.018;8.542;2023-01-28T14:11:01;10.60;;;9.20;;
3054;SDS011;1537;52.018;8.542;2023-01-28T14:14:41;9.80;;;8.03;;
3054;SDS011;1537;52.018;8.542;2023-01-28T14:18:41;10.90;;;8.50;;
3054;SDS011;1537;52.018;8.542;2023-01-28T14:22:06;9.50;;;8.60;;
3054;SDS011;1537;52.018;8.542;2023-01-28T14:25:32;8.63;;;7.63;;
3054;SDS011;1537;52.018;8.542;2023-01-28T14:29:03;10.90;;;9.40;;
3054;SDS011;1537;52.018;8.542;2023-01-28T14:32:42;12.20;;;9.23;;
3054;SDS011;1537;52.018;8.542;2023-01-28T14:36:10;10.00;;;8.33;;
3054;SDS011;1537;52.018;8.542;2023-01-28T14:39:37;9.60;;;8.60;;
3054;SDS011;1537;52.018;8.542;2023-01-28T14:43:05;9.80;;;8.80;;
3054;SDS011;1537;52.018;8.542;2023-01-28T14:46:34;10.73;;;9.60;;
3054;SDS011;1537;52.018;8.542;2023-01-28T14:50:17;10.23;;;9.23;;
3054;SDS011;1537;52.018;8.542;2023-01-28T14:53:57;9.97;;;8.50;;
3054;SDS011;1537;52.018;8.542;2023-01-28T14:57:36;11.03;;;9.00;;
3054;SDS011;1537;52.018;8.542;2023-01-28T15:01:15;9.77;;;8.70;;
3054;SDS011;1537;52.018;8.542;2023-01-28T15:04:42;11.50;;;8.57;;
3054;SDS011;1537;52.018;8.542;2023-01-28T15:08:05;15.70;;;11.23;;
3054;SDS011;1537;52.018;8.542;2023-01-28T15:11:30;17.97;;;15.97;;
3054;SDS011;1537;52.018;8.542;2023-01-28T15:14:54;12.17;;;10.80;;
3054;SDS011;1537;52.018;8.542;2023-01-28T15:18:18;12.73;;;9.77;;
3054;SDS011;1537;52.018;8.542;2023-01-28T15:21:53;16.53;;;10.87;;
3054;SDS011;1537;52.018;8.542;2023-01-28T15:25:18;11.67;;;10.10;;
3054;SDS011;1537;52.018;8.542;2023-01-28T15:28:45;13.37;;;11.97;;
3054;SDS011;1537;52.018;8.542;2023-01-28T15:32:19;12.30;;;11.00;;
3054;SDS011;1537;52.018;8.542;2023-01-28T15:35:46;12.50;;;10.63;;
3054;SDS011;1537;52.018;8.542;2023-01-28T15:39:12;14.40;;;11.63;;
3054;SDS011;1537;52.018;8.542;2023-01-28T15:42:37;11.37;;;10.27;;
3054;SDS011;1537;52.018;8.542;2023-01-28T15:46:02;13.67;;;10.40;;
3054;SDS011;1537;52.018;8.542;2023-01-28T15:49:32;11.13;;;8.83;;
3054;SDS011;1537;52.018;8.542;2023-01-28T15:52:59;17.13;;;11.17;;
3054;SDS011;1537;52.018;8.542;2023-01-28T15:56:24;15.13;;;10.30;;
3054;SDS011;1537;52.018;8.542;2023-01-28T15:59:49;21.93;;;13.93;;
3054;SDS011;1537;52.018;8.542;2023-01-28T16:03:18;15.10;;;11.80;;
3054;SDS011;1537;52.018;8.542;2023-01-28T16:06:44;13.60;;;10.50;;
3054;SDS011;1537;52.018;8.542;2023-01-28T16:10:15;17.63;;;12.33;;
3054;SDS011;1537;52.018;8.542;2023-01-28T16:13:44;14.73;;;10.87;;
3054;SDS011;1537;52.018;8.542;2023-01-28T16:17:08;16.07;;;12.27;;
3054;SDS011;1537;52.018;8.542;2023-01-28T16:20:38;14.10;;;11.10;;
3054;SDS011;1537;52.018;8.542;2023-01-28T16:24:03;13.23;;;11.83;;
3054;SDS011;1537;52.018;8.542;2023-01-28T16:27:28;15.57;;;13.30;;
3054;SDS011;1537;52.018;8.542;2023-01-28T16:30:53;16.30;;;11.53;;
3054;SDS011;1537;52.018;8.542;2023-01-28T16:34:16;18.30;;;13.33;;
3054;SDS011;1537;52.018;8.542;2023-01-28T16:37:41;15.50;;;13.10;;
3054;SDS011;1537;52.018;8.542;2023-01-28T16:41:10;16.93;;;12.87;;
3054;SDS011;1537;52.018;8.542;2023-01-28T16:44:35;15.13;;;12.43;;
3054;SDS011;1537;52.018;8.542;2023-01-28T16:47:59;15.10;;;13.00;;
3054;SDS011;1537;52.018;8.542;2023-01-28T16:51:22;12.40;;;10.97;;
3054;SDS011;1537;52.018;8.542;2023-01-28T16:54:47;15.63;;;12.50;;
3054;SDS011;1537;52.018;8.542;2023-01-28T16:58:11;15.90;;;12.70;;
3054;SDS011;1537;52.018;8.542;2023-01-28T17:01:35;17.33;;;13.23;;
3054;SDS011;1537;52.018;8.542;2023-01-28T17:04:59;15.90;;;12.47;;
3054;SDS011;1537;52.018;8.542;2023-01-28T17:08:23;15.30;;;12.87;;
3054;SDS011;1537;52.018;8.542;2023-01-28T17:11:48;33.47;;;23.30;;
3054;SDS011;1537;52.018;8.542;2023-01-28T17:15:11;27.97;;;19.90;;
3054;SDS011;1537;52.018;8.542;2023-01-28T17:18:35;26.37;;;18.93;;
3054;SDS011;1537;52.018;8.542;2023-01-28T17:21:59;26.60;;;16.23;;
3054;SDS011;1537;52.018;8.542;2023-01-28T17:25:23;19.43;;;14.47;;
3054;SDS011;1537;52.018;8.542;2023-01-28T17:28:51;19.13;;;14.50;;
3054;SDS011;1537;52.018;8.542;2023-01-28T17:32:16;22.00;;;16.10;;
3054;SDS011;1537;52.018;8.542;2023-01-28T17:35:39;23.13;;;18.67;;
3054;SDS011;1537;52.018;8.542;2023-01-28T17:39:08;23.23;;;16.30;;
3054;SDS011;1537;52.018;8.542;2023-01-28T17:42:31;31.50;;;21.07;;
3054;SDS011;1537;52.018;8.542;2023-01-28T17:45:56;27.60;;;18.93;;
3054;SDS011;1537;52.018;8.542;2023-01-28T17:49:20;24.10;;;17.73;;
3054;SDS011;1537;52.018;8.542;2023-01-28T17:52:44;22.80;;;16.73;;
3054;SDS011;1537;52.018;8.542;2023-01-28T17:56:12;20.27;;;15.63;;
3054;SDS011;1537;52.018;8.542;2023-01-28T17:59:37;19.47;;;14.90;;
3054;SDS011;1537;52.018;8.542;2023-01-28T18:03:03;20.90;;;15.20;;
3054;SDS011;1537;52.018;8.542;2023-01-28T18:06:28;21.10;;;16.63;;
3054;SDS011;1537;52.018;8.542;2023-01-28T18:09:53;20.90;;;16.37;;
3054;SDS011;1537;52.018;8.542;2023-01-28T18:13:18;20.63;;;15.50;;
3054;SDS011;1537;52.018;8.542;2023-01-28T18:16:42;25.40;;;19.03;;
3054;SDS011;1537;52.018;8.542;2023-01-28T18:20:12;22.80;;;16.67;;
3054;SDS011;1537;52.018;8.542;2023-01-28T18:23:36;23.20;;;17.60;;
3054;SDS011;1537;52.018;8.542;2023-01-28T18:27:00;23.30;;;17.13;;
3054;SDS011;1537;52.018;8.542;2023-01-28T18:30:25;26.70;;;16.33;;
3054;SDS011;1537;52.018;8.542;2023-01-28T18:33:51;34.73;;;23.83;;
3054;SDS011;1537;52.018;8.542;2023-01-28T18:37:21;37.77;;;25.97;;
3054;SDS011;1537;52.018;8.542;2023-01-28T18:40:45;26.40;;;19.30;;
3054;SDS011;1537;52.018;8.542;2023-01-28T18:44:09;22.40;;;17.03;;
3054;SDS011;1537;52.018;8.542;2023-01-28T18:47:34;32.03;;;23.10;;
3054;SDS011;1537;52.018;8.542;2023-01-28T18:50:57;22.17;;;17.40;;
3054;SDS011;1537;52.018;8.542;2023-01-28T18:54:22;26.83;;;19.90;;
3054;SDS011;1537;52.018;8.542;2023-01-28T18:57:46;23.47;;;17.53;;
3054;SDS011;1537;52.018;8.542;2023-01-28T19:01:10;37.57;;;27.70;;
3054;SDS011;1537;52.018;8.542;2023-01-28T19:04:33;25.53;;;19.97;;
3054;SDS011;1537;52.018;8.542;2023-01-28T19:07:57;27.13;;;20.57;;
3054;SDS011;1537;52.018;8.542;2023-01-28T19:11:23;28.80;;;21.30;;
3054;SDS011;1537;52.018;8.542;2023-01-28T19:14:49;27.07;;;17.90;;
3054;SDS011;1537;52.018;8.542;2023-01-28T19:18:12;27.43;;;20.43;;
3054;SDS011;1537;52.018;8.542;2023-01-28T19:21:36;33.40;;;22.20;;
3054;SDS011;1537;52.018;8.542;2023-01-28T19:25:00;23.87;;;18.30;;
3054;SDS011;1537;52.018;8.542;2023-01-28T19:28:25;23.10;;;18.00;;
3054;SDS011;1537;52.018;8.542;2023-01-28T19:31:53;30.03;;;21.30;;
3054;SDS011;1537;52.018;8.542;2023-01-28T19:35:17;30.40;;;22.47;;
3054;SDS011;1537;52.018;8.542;2023-01-28T19:38:40;31.13;;;24.03;;
3054;SDS011;1537;52.018;8.542;2023-01-28T19:42:04;31.20;;;21.60;;
3054;SDS011;1537;52.018;8.542;2023-01-28T19:45:29;34.30;;;23.53;;
3054;SDS011;1537;52.018;8.542;2023-01-28T19:48:53;30.13;;;24.23;;
3054;SDS011;1537;52.018;8.542;2023-01-28T19:52:17;40.93;;;24.13;;
3054;SDS011;1537;52.018;8.542;2023-01-28T19:55:40;31.93;;;20.60;;
3054;SDS011;1537;52.018;8.542;2023-01-28T19:59:04;30.20;;;21.10;;
3054;SDS011;1537;52.018;8.542;2023-01-28T20:02:30;31.63;;;22.80;;
3054;SDS011;1537;52.018;8.542;2023-01-28T20:05:57;31.37;;;20.27;;
3054;SDS011;1537;52.018;8.542;2023-01-28T20:09:21;44.30;;;32.20;;
3054;SDS011;1537;52.018;8.542;2023-01-28T20:12:45;32.40;;;22.10;;
3054;SDS011;1537;52.018;8.542;2023-01-28T20:16:10;33.93;;;22.20;;
3054;SDS011;1537;52.018;8.542;2023-01-28T20:19:38;31.60;;;24.03;;
3054;SDS011;1537;52.018;8.542;2023-01-28T20:23:02;38.07;;;26.23;;
3054;SDS011;1537;52.018;8.542;2023-01-28T20:26:27;27.57;;;19.67;;
3054;SDS011;1537;52.018;8.542;2023-01-28T20:29:53;27.10;;;20.60;;
3054;SDS011;1537;52.018;8.542;2023-01-28T20:33:16;32.10;;;20.73;;
3054;SDS011;1537;52.018;8.542;2023-01-28T20:36:41;30.87;;;21.03;;
3054;SDS011;1537;52.018;8.542;2023-01-28T20:40:06;34.33;;;22.47;;
3054;SDS011;1537;52.018;8.542;2023-01-28T20:43:32;38.10;;;23.00;;
3054;SDS011;1537;52.018;8.542;2023-01-28T20:46:56;33.50;;;22.70;;
3054;SDS011;1537;52.018;8.542;2023-01-28T20:50:23;31.40;;;21.17;;
3054;SDS011;1537;52.018;8.542;2023-01-28T20:53:53;34.87;;;22.37;;
3054;SDS011;1537;52.018;8.542;2023-01-28T20:57:22;31.67;;;22.30;;
3054;SDS011;1537;52.018;8.542;2023-01-28T21:00:54;32.80;;;20.83;;
3054;SDS011;1537;52.018;8.542;2023-01-28T21:04:19;29.73;;;20.20;;
3054;SDS011;1537;52.018;8.542;2023-01-28T21:07:49;28.77;;;19.90;;
3054;SDS011;1537;52.018;8.542;2023-01-28T21:11:14;30.30;;;19.50;;
3054;SDS011;1537;52.018;8.542;2023-01-28T21:14:49;27.30;;;21.00;;
3054;SDS011;1537;52.018;8.542;2023-01-28T21:18:15;32.13;;;20.27;;
3054;SDS011;1537;52.018;8.542;2023-01-28T21:21:41;33.20;;;20.73;;
3054;SDS011;1537;52.018;8.542;2023-01-28T21:25:08;27.47;;;19.80;;